createdAt,value
2022-10-05T00:00:30.895Z,82.02
2022-10-05T00:02:59.360Z,81.55
2022-10-05T00:05:31.120Z,81.78
2022-10-05T00:08:05.968Z,82.23
2022-10-05T00:10:35.323Z,82.85
2022-10-05T00:13:03.681Z,82.33
2022-10-05T00:15:31.656Z,82.39
2022-10-05T00:17:59.700Z,82.61
2022-10-05T00:20:27.957Z,82.66
2022-10-05T00:22:58.637Z,82.23
2022-10-05T00:25:26.677Z,82.30
2022-10-05T00:27:58.908Z,82.55
2022-10-05T00:30:28.387Z,81.75
2022-10-05T00:32:59.674Z,81.47
2022-10-05T00:35:29.565Z,82.22
2022-10-05T00:37:57.621Z,82.02
2022-10-05T00:40:34.481Z,82.34
2022-10-05T00:43:24.363Z,82.08
2022-10-05T00:45:56.842Z,81.98
2022-10-05T00:48:32.612Z,81.80
2022-10-05T00:51:12.498Z,82.04
2022-10-05T00:53:44.953Z,82.08
2022-10-05T00:56:22.440Z,81.85
2022-10-05T00:58:57.172Z,82.00
2022-10-05T01:01:28.835Z,82.21
2022-10-05T01:04:03.609Z,82.43
2022-10-05T01:06:37.508Z,82.13
2022-10-05T01:09:10.466Z,82.12
2022-10-05T01:11:44.309Z,81.92
2022-10-05T01:14:18.175Z,82.39
2022-10-05T01:16:52.606Z,82.30
2022-10-05T01:19:34.767Z,81.84
2022-10-05T01:22:07.873Z,82.10
2022-10-05T01:24:45.282Z,82.51
2022-10-05T01:27:20.504Z,83.52
2022-10-05T01:29:54.701Z,83.40
2022-10-05T01:32:26.983Z,83.10
2022-10-05T01:35:00.037Z,83.07
2022-10-05T01:37:30.499Z,83.12
2022-10-05T01:40:02.721Z,83.95
2022-10-05T01:42:39.017Z,84.10
2022-10-05T01:45:12.901Z,83.67
2022-10-05T01:47:45.530Z,83.27
2022-10-05T01:50:18.995Z,83.36
2022-10-05T01:52:53.963Z,83.21
2022-10-05T01:55:28.018Z,83.21
2022-10-05T01:58:07.087Z,83.14
2022-10-05T02:00:42.286Z,83.49
2022-10-05T02:03:15.097Z,83.92
2022-10-05T02:05:49.658Z,83.63
2022-10-05T02:08:24.892Z,83.19
2022-10-05T02:10:59.100Z,83.29
2022-10-05T02:13:33.660Z,83.77
2022-10-05T02:16:05.681Z,84.25
2022-10-05T02:18:39.108Z,84.47
2022-10-05T02:21:07.389Z,84.02
2022-10-05T02:23:38.036Z,84.32
2022-10-05T02:26:08.013Z,84.04
2022-10-05T02:28:39.616Z,83.95
2022-10-05T02:31:12.570Z,84.45
2022-10-05T02:33:40.860Z,84.23
2022-10-05T02:36:17.205Z,84.33
2022-10-05T02:39:02.189Z,83.93
2022-10-05T02:41:39.718Z,83.99
2022-10-05T02:44:15.287Z,84.08
2022-10-05T02:46:50.976Z,83.89
2022-10-05T02:49:28.429Z,83.76
2022-10-05T02:52:03.364Z,83.89
2022-10-05T02:54:43.808Z,83.30
2022-10-05T02:57:17.704Z,83.61
2022-10-05T02:59:49.220Z,83.17
2022-10-05T03:02:23.272Z,83.15
2022-10-05T03:05:00.701Z,83.12
2022-10-05T03:07:33.402Z,82.54
2022-10-05T03:10:09.590Z,83.09
2022-10-05T03:12:53.429Z,83.12
2022-10-05T03:15:44.346Z,82.70
2022-10-05T03:18:20.674Z,82.68
2022-10-05T03:20:55.085Z,82.74
2022-10-05T03:23:30.846Z,82.61
2022-10-05T03:26:10.828Z,82.76
2022-10-05T03:28:47.692Z,82.76
2022-10-05T03:31:19.205Z,83.26
2022-10-05T03:33:52.683Z,83.17
2022-10-05T03:36:26.634Z,83.11
2022-10-05T03:39:01.839Z,83.22
2022-10-05T03:41:36.187Z,83.32
2022-10-05T03:44:35.363Z,83.59
2022-10-05T03:47:12.673Z,84.01
2022-10-05T03:49:54.090Z,84.03
2022-10-05T03:52:26.434Z,84.03
2022-10-05T03:54:58.644Z,84.19
2022-10-05T03:57:28.608Z,84.30
2022-10-05T04:00:02.232Z,84.88
2022-10-05T04:02:46.038Z,84.91
2022-10-05T04:05:18.771Z,84.98
2022-10-05T04:07:49.926Z,85.09
2022-10-05T04:10:22.622Z,84.91
2022-10-05T04:12:55.191Z,85.11
2022-10-05T04:15:29.802Z,85.30
2022-10-05T04:18:02.055Z,85.27
2022-10-05T04:20:35.628Z,85.32
2022-10-05T04:23:12.711Z,84.77
2022-10-05T04:25:45.616Z,84.71
2022-10-05T04:28:20.387Z,85.11
2022-10-05T04:30:50.739Z,84.87
2022-10-05T04:33:19.413Z,83.98
2022-10-05T04:35:58.761Z,83.72
2022-10-05T04:38:36.107Z,83.48
2022-10-05T04:41:17.569Z,83.33
2022-10-05T04:43:54.687Z,83.14
2022-10-05T04:46:31.253Z,82.61
2022-10-05T04:49:14.720Z,83.02
2022-10-05T04:51:52.126Z,82.91
2022-10-05T04:54:27.805Z,83.46
2022-10-05T04:56:58.745Z,83.06
2022-10-05T04:59:40.828Z,82.97
2022-10-05T05:02:16.740Z,82.54
2022-10-05T05:05:23.341Z,83.01
2022-10-05T05:08:02.820Z,82.90
2022-10-05T05:10:59.668Z,83.25
2022-10-05T05:13:43.714Z,83.03
2022-10-05T05:16:21.016Z,83.47
2022-10-05T05:19:01.036Z,82.81
2022-10-05T05:21:38.120Z,82.87
2022-10-05T05:24:16.460Z,82.87
2022-10-05T05:26:58.899Z,83.09
2022-10-05T05:29:35.471Z,83.63
2022-10-05T05:32:10.789Z,83.40
2022-10-05T05:34:46.736Z,83.68
2022-10-05T05:37:19.542Z,84.06
2022-10-05T05:39:56.062Z,84.18
2022-10-05T05:42:36.866Z,84.30
2022-10-05T05:45:09.905Z,84.53
2022-10-05T05:47:41.841Z,84.24
2022-10-05T05:50:23.373Z,84.61
2022-10-05T05:52:55.264Z,84.67
2022-10-05T05:55:30.215Z,84.74
2022-10-05T05:58:04.765Z,84.43
2022-10-05T06:00:37.040Z,84.70
2022-10-05T06:03:11.975Z,84.10
2022-10-05T06:05:43.505Z,83.98
2022-10-05T06:08:17.920Z,84.16
2022-10-05T06:10:53.190Z,84.18
2022-10-05T06:13:24.806Z,84.58
2022-10-05T06:15:55.847Z,84.06
2022-10-05T06:18:24.789Z,84.56
2022-10-05T06:20:59.222Z,85.19
2022-10-05T06:23:31.837Z,85.69
2022-10-05T06:26:13.020Z,85.08
2022-10-05T06:28:43.552Z,85.83
2022-10-05T06:31:23.981Z,86.10
2022-10-05T06:34:02.888Z,86.06
2022-10-05T06:36:41.258Z,86.41
2022-10-05T06:39:23.893Z,86.91
2022-10-05T06:42:06.119Z,87.23
2022-10-05T06:44:57.733Z,87.38
2022-10-05T06:47:39.375Z,87.31
2022-10-05T06:50:32.295Z,87.15
2022-10-05T06:53:21.512Z,87.45
2022-10-05T06:55:55.202Z,87.41
2022-10-05T06:58:45.021Z,87.79
2022-10-05T07:01:17.386Z,88.09
2022-10-05T07:03:56.642Z,88.13
2022-10-05T07:06:26.960Z,88.62
2022-10-05T07:09:07.370Z,88.56
2022-10-05T07:11:54.662Z,88.94
2022-10-05T07:14:37.182Z,89.90
2022-10-05T07:17:18.724Z,90.12
2022-10-05T07:19:54.829Z,89.83
2022-10-05T07:22:49.761Z,89.66
2022-10-05T07:25:21.793Z,90.06
2022-10-05T07:27:55.055Z,89.75
2022-10-05T07:30:24.792Z,90.24
2022-10-05T07:32:59.980Z,90.14
2022-10-05T07:35:53.993Z,90.74
2022-10-05T07:38:32.075Z,90.38
2022-10-05T07:41:06.323Z,90.10
2022-10-05T07:44:01.003Z,90.00
2022-10-05T07:46:37.612Z,91.03
2022-10-05T07:49:12.273Z,90.82
2022-10-05T07:51:42.090Z,90.80
2022-10-05T07:54:17.273Z,91.06
2022-10-05T07:56:48.827Z,90.92
2022-10-05T07:59:24.953Z,91.28
2022-10-05T08:01:57.971Z,90.88
2022-10-05T08:04:29.034Z,91.39
2022-10-05T08:06:59.406Z,91.39
2022-10-05T08:09:34.490Z,91.61
2022-10-05T08:12:09.420Z,91.29
2022-10-05T08:14:42.113Z,91.01
2022-10-05T08:17:25.397Z,90.71
2022-10-05T08:19:59.680Z,90.87
2022-10-05T08:22:30.975Z,89.95
2022-10-05T08:25:01.404Z,90.27
2022-10-05T08:27:34.336Z,89.84
2022-10-05T08:30:04.781Z,90.28
2022-10-05T08:32:58.316Z,88.89
2022-10-05T08:35:34.037Z,89.17
2022-10-05T08:38:03.871Z,88.51
2022-10-05T08:40:55.171Z,89.15
2022-10-05T08:43:35.453Z,88.01
2022-10-05T08:46:17.752Z,86.81
2022-10-05T08:49:11.126Z,86.88
2022-10-05T08:51:50.868Z,86.96
2022-10-05T08:54:32.475Z,86.60
2022-10-05T08:57:18.149Z,86.05
2022-10-05T09:00:03.744Z,85.91
2022-10-05T09:02:41.836Z,86.75
2022-10-05T09:05:19.909Z,87.53
2022-10-05T09:08:20.824Z,87.54
2022-10-05T09:11:12.943Z,87.14
2022-10-05T09:14:06.339Z,86.81
2022-10-05T09:16:58.171Z,86.19
2022-10-05T09:19:51.787Z,85.84
2022-10-05T09:22:37.508Z,86.01
2022-10-05T09:25:17.248Z,85.65
2022-10-05T09:27:52.377Z,86.18
2022-10-05T09:30:30.461Z,84.75
2022-10-05T09:33:29.901Z,84.58
2022-10-05T09:36:36.361Z,82.59
2022-10-05T09:39:39.227Z,83.08
2022-10-05T09:42:38.092Z,82.16
2022-10-05T09:45:39.412Z,82.66
2022-10-05T09:48:48.761Z,82.79
2022-10-05T09:51:52.563Z,82.34
2022-10-05T09:54:49.397Z,82.31
2022-10-05T09:57:40.325Z,81.63
2022-10-05T10:00:21.832Z,80.45
2022-10-05T10:03:19.656Z,79.33
2022-10-05T10:06:32.038Z,80.26
2022-10-05T10:09:18.047Z,78.60
2022-10-05T10:12:01.224Z,78.39
2022-10-05T10:15:02.988Z,76.66
2022-10-05T10:18:04.644Z,77.15
2022-10-05T10:20:42.734Z,78.21
2022-10-05T10:23:18.282Z,75.56
2022-10-05T10:26:11.339Z,74.88
2022-10-05T10:29:10.047Z,73.84
2022-10-05T10:31:48.989Z,75.04
2022-10-05T10:34:45.908Z,74.25
2022-10-05T10:37:40.747Z,75.17
2022-10-05T10:40:26.049Z,74.44
2022-10-05T10:43:11.257Z,72.71
2022-10-05T10:45:48.846Z,71.91
2022-10-05T10:48:51.292Z,71.33
2022-10-05T10:51:26.822Z,70.29
2022-10-05T10:54:20.626Z,70.00
2022-10-05T10:57:00.494Z,70.87
2022-10-05T11:00:01.774Z,71.65
2022-10-05T11:02:57.655Z,69.72
2022-10-05T11:05:48.853Z,70.63
2022-10-05T11:08:56.422Z,70.82
2022-10-05T11:12:01.560Z,69.09
2022-10-05T11:14:42.395Z,69.30
2022-10-05T11:17:26.209Z,70.60
2022-10-05T11:20:05.413Z,68.68
2022-10-05T11:22:51.846Z,69.11
2022-10-05T11:25:51.176Z,69.63
2022-10-05T11:28:41.597Z,69.07
2022-10-05T11:31:32.139Z,68.49
2022-10-05T11:34:38.966Z,70.45
2022-10-05T11:37:21.273Z,69.03
2022-10-05T11:40:11.775Z,68.55
2022-10-05T11:43:04.314Z,68.71
2022-10-05T11:45:42.483Z,66.32
2022-10-05T11:48:36.971Z,67.71
2022-10-05T11:51:35.329Z,66.68
2022-10-05T11:55:05.920Z,67.44
2022-10-05T11:57:57.654Z,67.11
2022-10-05T12:00:27.606Z,66.99
2022-10-05T12:03:16.119Z,67.40
2022-10-05T12:05:55.706Z,66.63
2022-10-05T12:08:33.682Z,66.54
2022-10-05T12:11:09.080Z,66.89
2022-10-05T12:13:42.079Z,66.23
2022-10-05T12:16:14.691Z,67.48
2022-10-05T12:18:47.935Z,65.46
2022-10-05T12:21:22.791Z,67.20
2022-10-05T12:23:53.764Z,65.86
2022-10-05T12:26:24.853Z,66.82
2022-10-05T12:28:57.300Z,66.19
2022-10-05T12:31:33.681Z,65.07
2022-10-05T12:34:06.857Z,65.81
2022-10-05T12:37:02.995Z,65.26
2022-10-05T12:39:31.687Z,65.51
2022-10-05T12:42:09.061Z,63.79
2022-10-05T12:44:55.365Z,64.56
2022-10-05T12:47:29.479Z,64.97
2022-10-05T12:50:12.979Z,66.11
2022-10-05T12:53:03.447Z,65.77
2022-10-05T12:55:36.788Z,63.77
2022-10-05T12:58:14.512Z,64.44
2022-10-05T13:00:49.970Z,64.14
2022-10-05T13:03:24.371Z,65.02
2022-10-05T13:06:02.505Z,61.36
2022-10-05T13:08:34.534Z,64.32
2022-10-05T13:11:14.074Z,64.27
2022-10-05T13:13:50.563Z,64.75
2022-10-05T13:16:28.267Z,64.38
2022-10-05T13:19:07.491Z,64.33
2022-10-05T13:21:47.368Z,64.20
2022-10-05T13:24:19.592Z,63.61
2022-10-05T13:26:49.200Z,63.39
2022-10-05T13:29:20.744Z,62.90
2022-10-05T13:31:54.346Z,60.90
2022-10-05T13:34:27.935Z,62.59
2022-10-05T13:37:07.652Z,60.82
2022-10-05T13:39:55.537Z,61.16
2022-10-05T13:42:32.401Z,63.11
2022-10-05T13:45:03.963Z,62.40
2022-10-05T13:47:38.872Z,62.20
2022-10-05T13:50:10.914Z,63.00
2022-10-05T13:52:46.327Z,62.84
2022-10-05T13:55:21.543Z,61.31
2022-10-05T13:57:55.180Z,62.16
2022-10-05T14:00:27.077Z,61.37
2022-10-05T14:02:58.454Z,61.92
2022-10-05T14:05:27.889Z,62.49
2022-10-05T14:07:58.692Z,62.07
2022-10-05T14:10:33.873Z,60.99
2022-10-05T14:13:03.263Z,61.56
2022-10-05T14:15:38.491Z,61.41
2022-10-05T14:18:24.906Z,61.68
2022-10-05T14:21:17.523Z,61.95
2022-10-05T14:23:46.130Z,61.81
2022-10-05T14:26:32.567Z,62.27
2022-10-05T14:29:02.781Z,61.26
2022-10-05T14:31:36.643Z,61.88
2022-10-05T14:34:33.506Z,61.71
2022-10-05T14:37:09.979Z,60.50
2022-10-05T14:39:42.389Z,60.20
2022-10-05T14:42:19.186Z,61.41
2022-10-05T14:44:49.339Z,61.54
2022-10-05T14:47:22.601Z,61.82
2022-10-05T14:50:10.772Z,62.98
2022-10-05T14:52:41.166Z,61.40
2022-10-05T14:55:21.301Z,62.19
2022-10-05T14:57:56.283Z,62.18
2022-10-05T15:00:26.005Z,62.03
2022-10-05T15:03:18.005Z,62.36
2022-10-05T15:05:50.919Z,62.64
2022-10-05T15:08:28.985Z,63.38
2022-10-05T15:11:01.899Z,63.29
2022-10-05T15:13:33.516Z,63.77
2022-10-05T15:16:06.013Z,63.56
2022-10-05T15:18:41.182Z,63.57
2022-10-05T15:21:33.625Z,63.90
2022-10-05T15:24:04.064Z,64.53
2022-10-05T15:26:45.857Z,64.04
2022-10-05T15:29:26.099Z,64.03
2022-10-05T15:32:01.440Z,64.50
2022-10-05T15:34:35.060Z,64.26
2022-10-05T15:37:10.353Z,64.88
2022-10-05T15:39:43.283Z,64.44
2022-10-05T15:42:12.957Z,64.85
2022-10-05T15:44:54.099Z,64.91
2022-10-05T15:47:24.440Z,64.93
2022-10-05T15:50:00.238Z,64.98
2022-10-05T15:52:33.299Z,65.08
2022-10-05T15:55:10.650Z,65.22
2022-10-05T15:58:13.478Z,65.46
2022-10-05T16:00:46.284Z,65.76
2022-10-05T16:03:20.176Z,66.12
2022-10-05T16:06:11.478Z,66.46
2022-10-05T16:08:55.109Z,66.76
2022-10-05T16:11:33.112Z,66.72
2022-10-05T16:14:09.733Z,66.88
2022-10-05T16:16:42.703Z,67.24
2022-10-05T16:19:13.653Z,67.21
2022-10-05T16:21:48.517Z,67.39
2022-10-05T16:24:38.349Z,67.38
2022-10-05T16:27:11.591Z,67.55
2022-10-05T16:29:45.543Z,67.63
2022-10-05T16:32:16.664Z,68.14
2022-10-05T16:34:56.200Z,68.23
2022-10-05T16:37:33.168Z,68.47
2022-10-05T16:40:04.816Z,68.95
2022-10-05T16:42:46.371Z,69.53
2022-10-05T16:45:26.383Z,69.66
2022-10-05T16:48:01.747Z,69.82
2022-10-05T16:50:37.085Z,69.91
2022-10-05T16:53:11.071Z,70.14
2022-10-05T16:55:43.607Z,70.66
2022-10-05T16:58:17.874Z,70.85
2022-10-05T17:00:53.134Z,71.26
2022-10-05T17:03:28.742Z,71.27
2022-10-05T17:06:15.101Z,71.82
2022-10-05T17:09:12.545Z,71.61
2022-10-05T17:11:54.812Z,71.88
2022-10-05T17:14:33.025Z,71.69
2022-10-05T17:17:18.917Z,71.91
2022-10-05T17:19:57.198Z,71.80
2022-10-05T17:22:28.707Z,71.85
2022-10-05T17:25:02.896Z,72.36
2022-10-05T17:27:36.191Z,72.33
2022-10-05T17:30:37.183Z,72.61
2022-10-05T17:33:24.797Z,72.75
2022-10-05T17:36:12.830Z,72.96
2022-10-05T17:38:49.502Z,73.21
2022-10-05T17:41:20.181Z,73.42
2022-10-05T17:44:26.394Z,73.75
2022-10-05T17:46:56.866Z,73.84
2022-10-05T17:50:10.785Z,74.10
2022-10-05T17:53:01.259Z,74.09
2022-10-05T17:55:48.072Z,74.90
2022-10-05T17:59:01.995Z,75.06
2022-10-05T18:01:37.169Z,75.36
2022-10-05T18:04:34.428Z,75.25
2022-10-05T18:07:05.173Z,75.33
2022-10-05T18:09:38.390Z,75.31
2022-10-05T18:12:15.302Z,76.70
2022-10-05T18:14:57.472Z,76.46
2022-10-05T18:17:42.014Z,76.51
2022-10-05T18:20:28.633Z,77.02
2022-10-05T18:23:29.424Z,77.04
2022-10-05T18:26:04.846Z,77.23
2022-10-05T18:28:43.142Z,77.27
2022-10-05T18:31:19.283Z,76.91
2022-10-05T18:34:01.579Z,77.12
2022-10-05T18:36:40.210Z,77.05
2022-10-05T18:39:16.113Z,77.10
2022-10-05T18:41:54.274Z,76.80
2022-10-05T18:44:32.532Z,77.15
2022-10-05T18:47:05.291Z,76.92
2022-10-05T18:49:44.480Z,77.00
2022-10-05T18:52:18.577Z,76.64
2022-10-05T18:54:55.224Z,77.02
2022-10-05T18:57:40.351Z,77.08
2022-10-05T19:00:13.739Z,77.02
2022-10-05T19:02:46.477Z,77.58
2022-10-05T19:05:46.251Z,78.14
2022-10-05T19:08:19.296Z,77.65
2022-10-05T19:10:55.208Z,79.32
2022-10-05T19:13:33.308Z,79.54
2022-10-05T19:16:10.471Z,79.26
2022-10-05T19:18:47.017Z,79.84
2022-10-05T19:21:25.154Z,79.40
2022-10-05T19:24:06.235Z,78.85
2022-10-05T19:26:49.827Z,79.04
2022-10-05T19:29:27.139Z,78.41
2022-10-05T19:31:57.854Z,78.70
2022-10-05T19:34:43.991Z,78.16
2022-10-05T19:37:15.628Z,78.49
2022-10-05T19:39:50.717Z,78.72
2022-10-05T19:42:31.609Z,78.24
2022-10-05T19:45:09.223Z,78.36
2022-10-05T19:47:45.367Z,78.45
2022-10-05T19:50:28.176Z,78.52
2022-10-05T19:53:08.221Z,78.64
2022-10-05T19:55:39.571Z,78.37
2022-10-05T19:58:19.288Z,78.46
2022-10-05T20:00:54.286Z,78.58
2022-10-05T20:03:27.507Z,78.30
2022-10-05T20:05:56.838Z,78.46
2022-10-05T20:08:28.397Z,78.81
2022-10-05T20:11:11.255Z,78.71
2022-10-05T20:13:41.713Z,78.52
2022-10-05T20:16:39.232Z,79.04
2022-10-05T20:19:44.998Z,78.61
2022-10-05T20:22:31.540Z,78.54
2022-10-05T20:25:02.591Z,78.73
2022-10-05T20:27:43.580Z,78.85
2022-10-05T20:30:13.066Z,78.89
2022-10-05T20:32:41.571Z,78.76
2022-10-05T20:35:09.992Z,79.14
2022-10-05T20:37:37.981Z,79.23
2022-10-05T20:40:08.682Z,79.19
2022-10-05T20:42:36.725Z,79.28
2022-10-05T20:45:06.362Z,79.51
2022-10-05T20:47:34.380Z,79.18
2022-10-05T20:50:05.559Z,79.47
2022-10-05T20:52:33.538Z,80.04
2022-10-05T20:55:01.835Z,79.64
2022-10-05T20:57:31.499Z,79.46
2022-10-05T20:59:59.692Z,79.79
2022-10-05T21:02:28.701Z,79.92
2022-10-05T21:04:56.705Z,79.94
2022-10-05T21:07:25.763Z,80.04
2022-10-05T21:09:55.674Z,79.99
2022-10-05T21:12:23.687Z,80.15
2022-10-05T21:14:53.589Z,79.97
2022-10-05T21:17:21.558Z,80.04
2022-10-05T21:19:49.552Z,80.36
2022-10-05T21:22:17.631Z,80.11
2022-10-05T21:24:45.753Z,80.20
2022-10-05T21:27:13.808Z,80.28
2022-10-05T21:29:42.283Z,80.27
2022-10-05T21:32:12.269Z,80.29
2022-10-05T21:34:40.609Z,80.37
2022-10-05T21:37:09.182Z,80.48
2022-10-05T21:39:37.152Z,80.38
2022-10-05T21:42:05.381Z,80.39
2022-10-05T21:44:33.363Z,80.70
2022-10-05T21:47:01.479Z,80.63
2022-10-05T21:49:31.199Z,80.48
2022-10-05T21:51:59.971Z,80.57
2022-10-05T21:54:28.652Z,80.76
2022-10-05T21:56:58.638Z,80.30
2022-10-05T21:59:30.761Z,80.73
2022-10-05T22:01:59.007Z,80.93
2022-10-05T22:04:27.024Z,81.21
2022-10-05T22:06:56.860Z,81.50
2022-10-05T22:09:24.893Z,81.92
2022-10-05T22:11:52.897Z,81.60
2022-10-05T22:14:21.029Z,81.57
2022-10-05T22:16:49.051Z,81.40
2022-10-05T22:19:19.304Z,81.13
2022-10-05T22:21:47.317Z,81.22
2022-10-05T22:24:16.745Z,81.28
2022-10-05T22:26:45.989Z,81.18
2022-10-05T22:29:15.713Z,81.24
2022-10-05T22:31:43.824Z,81.02
2022-10-05T22:34:11.808Z,81.11
2022-10-05T22:36:41.761Z,81.22
2022-10-05T22:39:09.808Z,81.39
2022-10-05T22:41:39.188Z,81.74
2022-10-05T22:44:07.273Z,81.63
2022-10-05T22:46:35.387Z,81.64
2022-10-05T22:49:03.477Z,81.72
2022-10-05T22:51:31.424Z,81.35
2022-10-05T22:53:59.404Z,81.20
2022-10-05T22:56:27.593Z,80.82
2022-10-05T22:58:56.945Z,81.04
2022-10-05T23:01:25.006Z,81.04
2022-10-05T23:03:53.031Z,81.29
2022-10-05T23:06:22.284Z,81.12
2022-10-05T23:08:50.404Z,81.59
2022-10-05T23:11:20.646Z,81.13
2022-10-05T23:13:50.331Z,81.66
2022-10-05T23:16:21.249Z,81.43
2022-10-05T23:18:50.399Z,80.88
2022-10-05T23:21:20.013Z,81.13
2022-10-05T23:23:50.882Z,81.35
2022-10-05T23:26:20.855Z,80.76
2022-10-05T23:28:50.044Z,81.31
2022-10-05T23:31:21.706Z,81.63
2022-10-05T23:33:49.843Z,81.68
2022-10-05T23:36:19.209Z,81.46
2022-10-05T23:38:47.547Z,81.67
2022-10-05T23:41:16.992Z,81.48
2022-10-05T23:43:45.030Z,81.25
2022-10-05T23:46:14.423Z,80.84
2022-10-05T23:48:43.835Z,80.86
2022-10-05T23:51:13.189Z,80.49
2022-10-05T23:53:41.161Z,80.33
2022-10-05T23:56:09.167Z,80.31
2022-10-05T23:58:37.355Z,80.41
